sensor_id;sensor_type;location;lat;lon;timestamp;pressure;altitude;pressure_sealevel;temperature;humidity
8286;BME280;4181;43.416;24.598;2024-02-14T00:01:35;99450.00;;;9.84;100.00
8286;BME280;4181;43.416;24.598;2024-02-14T00:04:09;99457.06;;;9.85;100.00
8286;BME280;4181;43.416;24.598;2024-02-14T00:07:01;99458.25;;;9.94;100.00
8286;BME280;4181;43.416;24.598;2024-02-14T00:09:50;99459.34;;;9.93;100.00
8286;BME280;4181;43.416;24.598;2024-02-14T00:12:42;99465.94;;;10.07;100.00
8286;BME280;4181;43.416;24.598;2024-02-14T00:15:24;99462.59;;;9.95;100.00
8286;BME280;4181;43.416;24.598;2024-02-14T00:18:09;99468.09;;;10.05;100.00
8286;BME280;4181;43.416;24.598;2024-02-14T00:21:06;99463.94;;;9.92;100.00
8286;BME280;4181;43.416;24.598;2024-02-14T00:27:02;99457.66;;;9.92;100.00
8286;BME280;4181;43.416;24.598;2024-02-14T00:30:06;99471.72;;;10.10;100.00
8286;BME280;4181;43.416;24.598;2024-02-14T00:36:04;99479.41;;;10.23;100.00
8286;BME280;4181;43.416;24.598;2024-02-14T00:45:18;99500.09;;;10.14;100.00
8286;BME280;4181;43.416;24.598;2024-02-14T00:48:08;99495.69;;;10.08;100.00
8286;BME280;4181;43.416;24.598;2024-02-14T00:50:57;99504.72;;;10.14;100.00
8286;BME280;4181;43.416;24.598;2024-02-14T00:54:02;99505.31;;;10.21;100.00
8286;BME280;4181;43.416;24.598;2024-02-14T01:00:10;99504.25;;;10.27;100.00
8286;BME280;4181;43.416;24.598;2024-02-14T01:03:01;99515.16;;;10.27;100.00
8286;BME280;4181;43.416;24.598;2024-02-14T01:09:24;99519.50;;;10.23;100.00
8286;BME280;4181;43.416;24.598;2024-02-14T01:12:30;99529.59;;;10.28;100.00
8286;BME280;4181;43.416;24.598;2024-02-14T01:15:19;99520.53;;;10.17;100.00
8286;BME280;4181;43.416;24.598;2024-02-14T01:18:10;99529.31;;;10.24;100.00
8286;BME280;4181;43.416;24.598;2024-02-14T01:20:49;99529.31;;;10.24;100.00
8286;BME280;4181;43.416;24.598;2024-02-14T01:23:53;99527.16;;;10.26;100.00
8286;BME280;4181;43.416;24.598;2024-02-14T01:29:54;99539.41;;;10.29;100.00
8286;BME280;4181;43.416;24.598;2024-02-14T01:36:01;99550.84;;;10.26;100.00
8286;BME280;4181;43.416;24.598;2024-02-14T01:45:13;99550.53;;;10.17;100.00
8286;BME280;4181;43.416;24.598;2024-02-14T01:48:05;99557.38;;;10.19;100.00
8286;BME280;4181;43.416;24.598;2024-02-14T01:51:11;99562.03;;;10.24;100.00
8286;BME280;4181;43.416;24.598;2024-02-14T01:54:05;99544.78;;;10.13;100.00
8286;BME280;4181;43.416;24.598;2024-02-14T01:57:08;99555.47;;;10.25;100.00
8286;BME280;4181;43.416;24.598;2024-02-14T01:59:53;99566.00;;;10.11;100.00
8286;BME280;4181;43.416;24.598;2024-02-14T02:02:38;99567.38;;;10.09;100.00
8286;BME280;4181;43.416;24.598;2024-02-14T02:05:15;99560.66;;;9.90;100.00
8286;BME280;4181;43.416;24.598;2024-02-14T02:07:46;99562.56;;;9.89;100.00
8286;BME280;4181;43.416;24.598;2024-02-14T02:13:27;99571.34;;;10.01;100.00
8286;BME280;4181;43.416;24.598;2024-02-14T02:16:07;99561.28;;;10.02;100.00
8286;BME280;4181;43.416;24.598;2024-02-14T02:19:10;99556.09;;;10.00;100.00
8286;BME280;4181;43.416;24.598;2024-02-14T02:21:42;99575.78;;;10.07;100.00
8286;BME280;4181;43.416;24.598;2024-02-14T02:24:40;99575.59;;;10.14;100.00
8286;BME280;4181;43.416;24.598;2024-02-14T02:27:49;99564.53;;;9.99;100.00
8286;BME280;4181;43.416;24.598;2024-02-14T02:30:57;99582.00;;;9.98;100.00
8286;BME280;4181;43.416;24.598;2024-02-14T02:33:45;99589.59;;;9.96;100.00
8286;BME280;4181;43.416;24.598;2024-02-14T02:36:39;99593.91;;;9.92;100.00
8286;BME280;4181;43.416;24.598;2024-02-14T02:39:40;99582.41;;;9.85;100.00
8286;BME280;4181;43.416;24.598;2024-02-14T02:42:48;99581.13;;;9.92;100.00
8286;BME280;4181;43.416;24.598;2024-02-14T02:45:49;99588.16;;;9.88;100.00
8286;BME280;4181;43.416;24.598;2024-02-14T02:49:06;99592.84;;;9.93;100.00
8286;BME280;4181;43.416;24.598;2024-02-14T02:51:57;99591.63;;;9.79;100.00
8286;BME280;4181;43.416;24.598;2024-02-14T02:54:39;99591.75;;;9.94;100.00
8286;BME280;4181;43.416;24.598;2024-02-14T02:57:15;99593.91;;;9.92;100.00
8286;BME280;4181;43.416;24.598;2024-02-14T03:00:02;99602.38;;;9.95;100.00
8286;BME280;4181;43.416;24.598;2024-02-14T03:02:46;99597.28;;;10.04;100.00
8286;BME280;4181;43.416;24.598;2024-02-14T03:05:36;99596.19;;;10.05;100.00
8286;BME280;4181;43.416;24.598;2024-02-14T03:11:08;99606.69;;;9.91;100.00
8286;BME280;4181;43.416;24.598;2024-02-14T03:14:04;99608.41;;;9.97;100.00
8286;BME280;4181;43.416;24.598;2024-02-14T03:17:05;99618.91;;;9.84;100.00
8286;BME280;4181;43.416;24.598;2024-02-14T03:19:34;99611.63;;;9.89;100.00
8286;BME280;4181;43.416;24.598;2024-02-14T03:22:06;99615.44;;;9.93;100.00
8286;BME280;4181;43.416;24.598;2024-02-14T03:25:03;99618.47;;;9.97;100.00
8286;BME280;4181;43.416;24.598;2024-02-14T03:27:59;99623.94;;;9.97;100.00
8286;BME280;4181;43.416;24.598;2024-02-14T03:30:28;99605.13;;;9.95;100.00
8286;BME280;4181;43.416;24.598;2024-02-14T03:32:58;99624.91;;;10.12;100.00
8286;BME280;4181;43.416;24.598;2024-02-14T03:38:51;99634.25;;;9.95;100.00
8286;BME280;4181;43.416;24.598;2024-02-14T03:41:52;99637.03;;;10.00;100.00
8286;BME280;4181;43.416;24.598;2024-02-14T03:44:44;99635.16;;;9.74;100.00
8286;BME280;4181;43.416;24.598;2024-02-14T03:47:17;99634.34;;;9.73;100.00
8286;BME280;4181;43.416;24.598;2024-02-14T03:50:06;99616.50;;;9.87;100.00
8286;BME280;4181;43.416;24.598;2024-02-14T03:52:33;99617.38;;;9.93;100.00
8286;BME280;4181;43.416;24.598;2024-02-14T03:55:14;99612.50;;;10.00;100.00
8286;BME280;4181;43.416;24.598;2024-02-14T04:06:30;99633.09;;;10.12;100.00
8286;BME280;4181;43.416;24.598;2024-02-14T04:09:40;99645.88;;;10.12;100.00
8286;BME280;4181;43.416;24.598;2024-02-14T04:12:26;99640.97;;;10.09;100.00
8286;BME280;4181;43.416;24.598;2024-02-14T04:15:07;99655.28;;;10.26;100.00
8286;BME280;4181;43.416;24.598;2024-02-14T04:21:31;99660.34;;;10.12;100.00
8286;BME280;4181;43.416;24.598;2024-02-14T04:24:06;99672.94;;;10.18;100.00
8286;BME280;4181;43.416;24.598;2024-02-14T04:26:53;99678.66;;;10.17;100.00
8286;BME280;4181;43.416;24.598;2024-02-14T04:29:49;99689.44;;;10.07;100.00
8286;BME280;4181;43.416;24.598;2024-02-14T04:32:54;99695.88;;;9.96;100.00
8286;BME280;4181;43.416;24.598;2024-02-14T04:35:58;99704.94;;;9.80;100.00
8286;BME280;4181;43.416;24.598;2024-02-14T04:38:37;99696.88;;;9.90;100.00
8286;BME280;4181;43.416;24.598;2024-02-14T04:41:17;99698.59;;;9.96;100.00
8286;BME280;4181;43.416;24.598;2024-02-14T04:49:53;99723.88;;;9.91;100.00
8286;BME280;4181;43.416;24.598;2024-02-14T04:52:38;99729.44;;;10.01;100.00
8286;BME280;4181;43.416;24.598;2024-02-14T04:55:16;99718.19;;;9.93;100.00
8286;BME280;4181;43.416;24.598;2024-02-14T04:57:51;99736.75;;;9.96;100.00
8286;BME280;4181;43.416;24.598;2024-02-14T05:00:24;99735.59;;;9.92;100.00
8286;BME280;4181;43.416;24.598;2024-02-14T05:02:58;99742.91;;;9.65;100.00
8286;BME280;4181;43.416;24.598;2024-02-14T05:05:27;99734.25;;;9.68;100.00
8286;BME280;4181;43.416;24.598;2024-02-14T05:08:11;99736.00;;;9.79;100.00
8286;BME280;4181;43.416;24.598;2024-02-14T05:10:50;99741.00;;;9.87;100.00
8286;BME280;4181;43.416;24.598;2024-02-14T05:13:19;99749.22;;;9.92;100.00
8286;BME280;4181;43.416;24.598;2024-02-14T05:15:50;99753.50;;;9.83;100.00
8286;BME280;4181;43.416;24.598;2024-02-14T05:18:20;99744.69;;;9.76;100.00
8286;BME280;4181;43.416;24.598;2024-02-14T05:20:57;99759.72;;;9.57;100.00
8286;BME280;4181;43.416;24.598;2024-02-14T05:23:33;99754.00;;;9.37;100.00
8286;BME280;4181;43.416;24.598;2024-02-14T05:26:09;99736.50;;;9.28;100.00
8286;BME280;4181;43.416;24.598;2024-02-14T05:31:56;99724.44;;;9.45;100.00
8286;BME280;4181;43.416;24.598;2024-02-14T05:35:00;99738.00;;;9.62;100.00
8286;BME280;4181;43.416;24.598;2024-02-14T05:37:56;99740.84;;;9.72;100.00
8286;BME280;4181;43.416;24.598;2024-02-14T05:40:38;99761.00;;;9.71;100.00
8286;BME280;4181;43.416;24.598;2024-02-14T05:43:18;99774.28;;;9.67;100.00
8286;BME280;4181;43.416;24.598;2024-02-14T05:45:49;99773.13;;;9.85;100.00
8286;BME280;4181;43.416;24.598;2024-02-14T05:48:31;99785.09;;;9.84;100.00
8286;BME280;4181;43.416;24.598;2024-02-14T05:50:58;99796.06;;;9.89;100.00
8286;BME280;4181;43.416;24.598;2024-02-14T05:53:31;99808.22;;;10.03;100.00
8286;BME280;4181;43.416;24.598;2024-02-14T05:55:59;99819.41;;;10.06;100.00
8286;BME280;4181;43.416;24.598;2024-02-14T05:58:26;99829.34;;;10.12;100.00
8286;BME280;4181;43.416;24.598;2024-02-14T06:00:59;99840.88;;;10.19;100.00
8286;BME280;4181;43.416;24.598;2024-02-14T06:03:27;99853.88;;;10.12;100.00
8286;BME280;4181;43.416;24.598;2024-02-14T06:06:01;99861.97;;;10.07;100.00
8286;BME280;4181;43.416;24.598;2024-02-14T06:08:30;99873.53;;;10.14;100.00
8286;BME280;4181;43.416;24.598;2024-02-14T06:10:58;99888.34;;;10.02;100.00
8286;BME280;4181;43.416;24.598;2024-02-14T06:13:28;99879.19;;;10.08;100.00
8286;BME280;4181;43.416;24.598;2024-02-14T06:16:04;99878.59;;;10.06;100.00
8286;BME280;4181;43.416;24.598;2024-02-14T06:18:37;99882.09;;;10.06;100.00
8286;BME280;4181;43.416;24.598;2024-02-14T06:21:09;99879.72;;;10.10;100.00
8286;BME280;4181;43.416;24.598;2024-02-14T06:23:43;99879.56;;;10.00;100.00
8286;BME280;4181;43.416;24.598;2024-02-14T06:26:22;99894.25;;;10.15;100.00
8286;BME280;4181;43.416;24.598;2024-02-14T06:29:11;99895.19;;;10.04;100.00
8286;BME280;4181;43.416;24.598;2024-02-14T06:31:54;99897.75;;;10.11;100.00
8286;BME280;4181;43.416;24.598;2024-02-14T06:34:59;99903.53;;;10.14;100.00
8286;BME280;4181;43.416;24.598;2024-02-14T06:37:41;99899.50;;;10.00;100.00
8286;BME280;4181;43.416;24.598;2024-02-14T06:43:20;99896.25;;;10.03;100.00
8286;BME280;4181;43.416;24.598;2024-02-14T06:45:47;99914.91;;;10.11;100.00
8286;BME280;4181;43.416;24.598;2024-02-14T06:48:19;99914.75;;;10.18;100.00
8286;BME280;4181;43.416;24.598;2024-02-14T06:50:53;99907.63;;;10.17;100.00
8286;BME280;4181;43.416;24.598;2024-02-14T06:53:30;99913.97;;;10.23;100.00
8286;BME280;4181;43.416;24.598;2024-02-14T06:55:57;99907.94;;;10.20;100.00
8286;BME280;4181;43.416;24.598;2024-02-14T06:58:25;99908.47;;;10.17;100.00
8286;BME280;4181;43.416;24.598;2024-02-14T07:00:51;99922.47;;;10.26;100.00
8286;BME280;4181;43.416;24.598;2024-02-14T07:03:19;99938.19;;;10.19;100.00
8286;BME280;4181;43.416;24.598;2024-02-14T07:05:55;99946.81;;;10.11;100.00
8286;BME280;4181;43.416;24.598;2024-02-14T07:08:37;99943.03;;;9.95;100.00
8286;BME280;4181;43.416;24.598;2024-02-14T07:11:16;99952.94;;;9.85;100.00
8286;BME280;4181;43.416;24.598;2024-02-14T07:13:59;99954.00;;;10.00;100.00
8286;BME280;4181;43.416;24.598;2024-02-14T07:16:40;99962.41;;;10.15;100.00
8286;BME280;4181;43.416;24.598;2024-02-14T07:19:35;99963.00;;;10.17;100.00
8286;BME280;4181;43.416;24.598;2024-02-14T07:22:13;99969.75;;;10.15;100.00
8286;BME280;4181;43.416;24.598;2024-02-14T07:24:50;99973.16;;;10.05;100.00
8286;BME280;4181;43.416;24.598;2024-02-14T07:27:26;99968.13;;;9.97;100.00
8286;BME280;4181;43.416;24.598;2024-02-14T07:29:57;99980.59;;;10.10;100.00
8286;BME280;4181;43.416;24.598;2024-02-14T07:32:26;99983.47;;;10.20;100.00
8286;BME280;4181;43.416;24.598;2024-02-14T07:35:05;99984.03;;;10.22;100.00
8286;BME280;4181;43.416;24.598;2024-02-14T07:37:39;100000.41;;;10.22;100.00
8286;BME280;4181;43.416;24.598;2024-02-14T07:40:13;100018.16;;;10.25;100.00
8286;BME280;4181;43.416;24.598;2024-02-14T07:42:43;100028.81;;;10.26;100.00
8286;BME280;4181;43.416;24.598;2024-02-14T07:45:13;100040.16;;;10.18;100.00
8286;BME280;4181;43.416;24.598;2024-02-14T07:48:06;100053.72;;;10.13;100.00
8286;BME280;4181;43.416;24.598;2024-02-14T07:50:51;100071.19;;;10.00;100.00
8286;BME280;4181;43.416;24.598;2024-02-14T07:53:29;100075.91;;;9.88;100.00
8286;BME280;4181;43.416;24.598;2024-02-14T07:56:01;100077.31;;;9.91;100.00
8286;BME280;4181;43.416;24.598;2024-02-14T07:58:35;100079.94;;;10.02;100.00
8286;BME280;4181;43.416;24.598;2024-02-14T08:03:58;100102.50;;;9.98;100.00
8286;BME280;4181;43.416;24.598;2024-02-14T08:06:26;100098.38;;;9.79;100.00
8286;BME280;4181;43.416;24.598;2024-02-14T08:08:54;100125.78;;;9.72;100.00
8286;BME280;4181;43.416;24.598;2024-02-14T08:11:29;100130.91;;;9.85;100.00
8286;BME280;4181;43.416;24.598;2024-02-14T08:14:00;100129.50;;;9.83;100.00
8286;BME280;4181;43.416;24.598;2024-02-14T08:16:27;100131.75;;;9.86;100.00
8286;BME280;4181;43.416;24.598;2024-02-14T08:18:57;100140.53;;;9.76;100.00
8286;BME280;4181;43.416;24.598;2024-02-14T08:21:42;100143.50;;;9.75;100.00
8286;BME280;4181;43.416;24.598;2024-02-14T08:24:21;100164.00;;;9.77;100.00
8286;BME280;4181;43.416;24.598;2024-02-14T08:27:09;100159.06;;;9.91;100.00
8286;BME280;4181;43.416;24.598;2024-02-14T08:29:45;100165.81;;;9.88;100.00
8286;BME280;4181;43.416;24.598;2024-02-14T08:32:40;100174.66;;;9.79;100.00
8286;BME280;4181;43.416;24.598;2024-02-14T08:35:08;100186.06;;;9.76;100.00
8286;BME280;4181;43.416;24.598;2024-02-14T08:37:37;100181.97;;;9.62;100.00
8286;BME280;4181;43.416;24.598;2024-02-14T08:40:12;100191.22;;;9.61;100.00
8286;BME280;4181;43.416;24.598;2024-02-14T08:42:51;100178.50;;;9.66;100.00
8286;BME280;4181;43.416;24.598;2024-02-14T08:45:31;100196.75;;;9.66;100.00
8286;BME280;4181;43.416;24.598;2024-02-14T08:48:09;100201.16;;;9.83;100.00
8286;BME280;4181;43.416;24.598;2024-02-14T08:50:55;100199.97;;;9.63;100.00
8286;BME280;4181;43.416;24.598;2024-02-14T08:53:46;100208.81;;;9.70;100.00
8286;BME280;4181;43.416;24.598;2024-02-14T08:56:27;100187.41;;;9.62;100.00
8286;BME280;4181;43.416;24.598;2024-02-14T08:58:58;100213.69;;;9.68;100.00
8286;BME280;4181;43.416;24.598;2024-02-14T09:01:35;100203.94;;;9.72;100.00
8286;BME280;4181;43.416;24.598;2024-02-14T09:10:15;100230.13;;;9.73;100.00
8286;BME280;4181;43.416;24.598;2024-02-14T09:13:15;100245.94;;;9.87;100.00
8286;BME280;4181;43.416;24.598;2024-02-14T09:16:03;100254.50;;;9.79;100.00
8286;BME280;4181;43.416;24.598;2024-02-14T09:19:03;100251.53;;;9.81;100.00
8286;BME280;4181;43.416;24.598;2024-02-14T09:21:38;100266.22;;;9.80;100.00
8286;BME280;4181;43.416;24.598;2024-02-14T09:24:21;100275.66;;;9.89;100.00
8286;BME280;4181;43.416;24.598;2024-02-14T09:26:50;100276.97;;;9.86;100.00
8286;BME280;4181;43.416;24.598;2024-02-14T09:29:21;100289.34;;;9.77;100.00
8286;BME280;4181;43.416;24.598;2024-02-14T09:32:12;100295.28;;;9.74;100.00
8286;BME280;4181;43.416;24.598;2024-02-14T09:34:57;100276.25;;;9.63;100.00
8286;BME280;4181;43.416;24.598;2024-02-14T09:37:39;100276.56;;;9.66;100.00
8286;BME280;4181;43.416;24.598;2024-02-14T09:40:25;100285.19;;;9.75;100.00
8286;BME280;4181;43.416;24.598;2024-02-14T09:46:14;100281.66;;;9.74;100.00
8286;BME280;4181;43.416;24.598;2024-02-14T09:49:09;100279.53;;;9.65;100.00
8286;BME280;4181;43.416;24.598;2024-02-14T09:51:40;100284.88;;;9.60;100.00
8286;BME280;4181;43.416;24.598;2024-02-14T09:54:20;100263.09;;;9.60;100.00
8286;BME280;4181;43.416;24.598;2024-02-14T09:57:10;100285.69;;;9.72;100.00
8286;BME280;4181;43.416;24.598;2024-02-14T09:59:50;100288.75;;;9.75;100.00
8286;BME280;4181;43.416;24.598;2024-02-14T10:02:44;100286.91;;;9.64;100.00
8286;BME280;4181;43.416;24.598;2024-02-14T10:05:17;100279.19;;;9.73;100.00
8286;BME280;4181;43.416;24.598;2024-02-14T10:07:44;100280.28;;;9.88;100.00
8286;BME280;4181;43.416;24.598;2024-02-14T10:10:16;100269.09;;;10.01;100.00
8286;BME280;4181;43.416;24.598;2024-02-14T10:12:49;100281.31;;;9.99;100.00
8286;BME280;4181;43.416;24.598;2024-02-14T10:15:29;100271.97;;;9.95;100.00
8286;BME280;4181;43.416;24.598;2024-02-14T10:18:08;100283.84;;;9.89;100.00
8286;BME280;4181;43.416;24.598;2024-02-14T10:20:37;100286.63;;;10.05;100.00
8286;BME280;4181;43.416;24.598;2024-02-14T10:23:14;100292.88;;;10.17;100.00
8286;BME280;4181;43.416;24.598;2024-02-14T10:26:05;100290.00;;;10.24;100.00
8286;BME280;4181;43.416;24.598;2024-02-14T10:28:45;100290.00;;;10.24;100.00
8286;BME280;4181;43.416;24.598;2024-02-14T10:31:32;100295.63;;;10.34;100.00
8286;BME280;4181;43.416;24.598;2024-02-14T10:34:02;100296.13;;;10.31;100.00
8286;BME280;4181;43.416;24.598;2024-02-14T10:36:36;100295.44;;;10.24;100.00
8286;BME280;4181;43.416;24.598;2024-02-14T10:39:08;100305.84;;;10.27;100.00
8286;BME280;4181;43.416;24.598;2024-02-14T10:41:48;100293.31;;;10.26;100.00
8286;BME280;4181;43.416;24.598;2024-02-14T10:44:22;100296.44;;;10.18;100.00
8286;BME280;4181;43.416;24.598;2024-02-14T10:46:53;100296.13;;;10.31;100.00
8286;BME280;4181;43.416;24.598;2024-02-14T10:49:31;100305.53;;;10.40;100.00
8286;BME280;4181;43.416;24.598;2024-02-14T10:52:06;100305.84;;;10.27;100.00
8286;BME280;4181;43.416;24.598;2024-02-14T10:54:47;100303.22;;;10.32;100.00
8286;BME280;4181;43.416;24.598;2024-02-14T10:57:36;100309.09;;;10.24;100.00
8286;BME280;4181;43.416;24.598;2024-02-14T11:00:28;100313.94;;;10.22;100.00
8286;BME280;4181;43.416;24.598;2024-02-14T11:03:10;100311.06;;;10.29;100.00
8286;BME280;4181;43.416;24.598;2024-02-14T11:05:50;100316.63;;;10.34;100.00
8286;BME280;4181;43.416;24.598;2024-02-14T11:08:22;100313.19;;;10.55;100.00
8286;BME280;4181;43.416;24.598;2024-02-14T11:11:01;100322.00;;;10.62;100.00
8286;BME280;4181;43.416;24.598;2024-02-14T11:13:43;100312.69;;;10.74;100.00
8286;BME280;4181;43.416;24.598;2024-02-14T11:16:30;100319.03;;;10.63;100.00
8286;BME280;4181;43.416;24.598;2024-02-14T11:19:13;100310.38;;;10.66;100.00
8286;BME280;4181;43.416;24.598;2024-02-14T11:21:51;100319.78;;;10.75;100.00
8286;BME280;4181;43.416;24.598;2024-02-14T11:24:36;100313.69;;;10.85;100.00
8286;BME280;4181;43.416;24.598;2024-02-14T11:27:42;100318.91;;;10.86;100.00
8286;BME280;4181;43.416;24.598;2024-02-14T11:30:39;100317.66;;;10.77;100.00
8286;BME280;4181;43.416;24.598;2024-02-14T11:33:32;100313.91;;;10.83;100.00
8286;BME280;4181;43.416;24.598;2024-02-14T11:36:13;100306.91;;;10.71;100.00
8286;BME280;4181;43.416;24.598;2024-02-14T11:38:41;100314.59;;;10.90;100.00
8286;BME280;4181;43.416;24.598;2024-02-14T11:41:23;100312.69;;;10.91;100.00
8286;BME280;4181;43.416;24.598;2024-02-14T11:44:05;100314.81;;;11.05;100.00
8286;BME280;4181;43.416;24.598;2024-02-14T11:46:45;100320.13;;;10.95;100.00
8286;BME280;4181;43.416;24.598;2024-02-14T11:49:14;100321.78;;;10.96;100.00
8286;BME280;4181;43.416;24.598;2024-02-14T11:51:51;100323.34;;;11.09;100.00
8286;BME280;4181;43.416;24.598;2024-02-14T11:54:38;100312.84;;;11.01;100.00
8286;BME280;4181;43.416;24.598;2024-02-14T11:57:17;100309.16;;;11.28;100.00
8286;BME280;4181;43.416;24.598;2024-02-14T11:59:59;100306.00;;;11.36;100.00
8286;BME280;4181;43.416;24.598;2024-02-14T12:02:44;100315.19;;;11.30;100.00
8286;BME280;4181;43.416;24.598;2024-02-14T12:08:15;100316.28;;;11.29;100.00
8286;BME280;4181;43.416;24.598;2024-02-14T12:10:58;100320.22;;;11.38;100.00
8286;BME280;4181;43.416;24.598;2024-02-14T12:13:42;100324.84;;;11.55;100.00
8286;BME280;4181;43.416;24.598;2024-02-14T12:16:41;100324.31;;;11.58;100.00
8286;BME280;4181;43.416;24.598;2024-02-14T12:19:16;100325.56;;;11.50;100.00
8286;BME280;4181;43.416;24.598;2024-02-14T12:21:43;100325.03;;;11.48;100.00
8286;BME280;4181;43.416;24.598;2024-02-14T12:28:08;100330.03;;;11.73;100.00
8286;BME280;4181;43.416;24.598;2024-02-14T12:31:13;100338.41;;;11.66;100.00
8286;BME280;4181;43.416;24.598;2024-02-14T12:34:15;100341.78;;;11.73;100.00
8286;BME280;4181;43.416;24.598;2024-02-14T12:37:01;100338.78;;;11.75;100.00
8286;BME280;4181;43.416;24.598;2024-02-14T12:39:53;100331.09;;;11.72;100.00
8286;BME280;4181;43.416;24.598;2024-02-14T12:42:38;100332.78;;;11.56;100.00
8286;BME280;4181;43.416;24.598;2024-02-14T12:45:40;100334.16;;;11.59;100.00
8286;BME280;4181;43.416;24.598;2024-02-14T12:48:32;100347.81;;;11.59;100.00
8286;BME280;4181;43.416;24.598;2024-02-14T12:51:23;100334.91;;;11.71;100.00
8286;BME280;4181;43.416;24.598;2024-02-14T12:54:02;100334.41;;;11.57;100.00
8286;BME280;4181;43.416;24.598;2024-02-14T12:56:40;100340.72;;;11.58;100.00
8286;BME280;4181;43.416;24.598;2024-02-14T12:59:18;100333.28;;;11.53;100.00
8286;BME280;4181;43.416;24.598;2024-02-14T13:01:47;100347.28;;;11.40;100.00
8286;BME280;4181;43.416;24.598;2024-02-14T13:04:21;100349.69;;;11.53;100.00
8286;BME280;4181;43.416;24.598;2024-02-14T13:06:57;100342.88;;;11.56;100.00
8286;BME280;4181;43.416;24.598;2024-02-14T13:09:35;100345.19;;;11.64;100.00
8286;BME280;4181;43.416;24.598;2024-02-14T13:12:06;100341.03;;;11.61;100.00
8286;BME280;4181;43.416;24.598;2024-02-14T13:14:51;100344.41;;;11.46;100.00
8286;BME280;4181;43.416;24.598;2024-02-14T13:17:28;100342.81;;;11.50;100.00
8286;BME280;4181;43.416;24.598;2024-02-14T13:19:59;100336.28;;;11.52;100.00
8286;BME280;4181;43.416;24.598;2024-02-14T13:22:31;100342.81;;;11.50;100.00
8286;BME280;4181;43.416;24.598;2024-02-14T13:25:09;100339.88;;;11.57;100.00
8286;BME280;4181;43.416;24.598;2024-02-14T13:27:38;100340.72;;;11.58;100.00
8286;BME280;4181;43.416;24.598;2024-02-14T13:30:06;100339.22;;;11.67;100.00
8286;BME280;4181;43.416;24.598;2024-02-14T13:32:33;100342.78;;;11.67;100.00
8286;BME280;4181;43.416;24.598;2024-02-14T13:34:58;100344.13;;;11.65;100.00
8286;BME280;4181;43.416;24.598;2024-02-14T13:37:30;100346.41;;;11.73;100.00
8286;BME280;4181;43.416;24.598;2024-02-14T13:40:01;100326.06;;;11.64;100.00
8286;BME280;4181;43.416;24.598;2024-02-14T13:42:32;100340.88;;;11.68;100.00
8286;BME280;4181;43.416;24.598;2024-02-14T13:44:57;100319.03;;;11.51;100.00
8286;BME280;4181;43.416;24.598;2024-02-14T13:47:30;100341.41;;;11.65;100.00
8286;BME280;4181;43.416;24.598;2024-02-14T13:49:59;100341.94;;;11.67;100.00
8286;BME280;4181;43.416;24.598;2024-02-14T13:52:31;100343.78;;;11.61;100.00
8286;BME280;4181;43.416;24.598;2024-02-14T13:55:08;100353.28;;;11.75;100.00
8286;BME280;4181;43.416;24.598;2024-02-14T14:01:08;100354.63;;;11.56;100.00
8286;BME280;4181;43.416;24.598;2024-02-14T14:03:51;100368.56;;;11.55;100.00
8286;BME280;4181;43.416;24.598;2024-02-14T14:06:31;100362.94;;;11.44;100.00
8286;BME280;4181;43.416;24.598;2024-02-14T14:09:35;100359.78;;;11.52;100.00
8286;BME280;4181;43.416;24.598;2024-02-14T14:12:36;100364.72;;;11.56;100.00
8286;BME280;4181;43.416;24.598;2024-02-14T14:15:48;100356.53;;;11.56;100.00
8286;BME280;4181;43.416;24.598;2024-02-14T14:18:55;100365.88;;;11.60;100.00
8286;BME280;4181;43.416;24.598;2024-02-14T14:22:04;100365.06;;;11.59;100.00
8286;BME280;4181;43.416;24.598;2024-02-14T14:28:05;100357.28;;;11.51;100.00
8286;BME280;4181;43.416;24.598;2024-02-14T14:31:19;100360.44;;;11.60;100.00
8286;BME280;4181;43.416;24.598;2024-02-14T14:34:12;100371.72;;;11.46;100.00
8286;BME280;4181;43.416;24.598;2024-02-14T14:37:11;100372.34;;;11.53;100.00
8286;BME280;4181;43.416;24.598;2024-02-14T14:39:59;100363.47;;;11.63;100.00
8286;BME280;4181;43.416;24.598;2024-02-14T14:42:37;100369.06;;;11.52;100.00
8286;BME280;4181;43.416;24.598;2024-02-14T14:45:34;100362.31;;;11.59;100.00
8286;BME280;4181;43.416;24.598;2024-02-14T14:48:07;100351.00;;;11.50;100.00
8286;BME280;4181;43.416;24.598;2024-02-14T14:50:59;100369.94;;;11.74;100.00
8286;BME280;4181;43.416;24.598;2024-02-14T14:56:41;100362.75;;;11.68;100.00
8286;BME280;4181;43.416;24.598;2024-02-14T14:59:41;100368.59;;;11.76;100.00
8286;BME280;4181;43.416;24.598;2024-02-14T15:05:16;100375.84;;;11.66;100.00
8286;BME280;4181;43.416;24.598;2024-02-14T15:08:09;100387.94;;;11.70;100.00
8286;BME280;4181;43.416;24.598;2024-02-14T15:11:06;100386.25;;;11.69;100.00
8286;BME280;4181;43.416;24.598;2024-02-14T15:14:00;100388.72;;;11.70;100.00
8286;BME280;4181;43.416;24.598;2024-02-14T15:16:46;100390.41;;;11.55;100.00
8286;BME280;4181;43.416;24.598;2024-02-14T15:19:24;100389.97;;;11.63;100.00
8286;BME280;4181;43.416;24.598;2024-02-14T15:21:56;100394.59;;;11.62;100.00
8286;BME280;4181;43.416;24.598;2024-02-14T15:24:47;100387.75;;;11.60;100.00
8286;BME280;4181;43.416;24.598;2024-02-14T15:27:25;100398.19;;;11.63;100.00
8286;BME280;4181;43.416;24.598;2024-02-14T15:30:09;100397.53;;;11.56;100.00
8286;BME280;4181;43.416;24.598;2024-02-14T15:33:15;100398.69;;;11.60;100.00
8286;BME280;4181;43.416;24.598;2024-02-14T15:36:07;100394.19;;;11.53;100.00
8286;BME280;4181;43.416;24.598;2024-02-14T15:39:05;100402.31;;;11.48;100.00
8286;BME280;4181;43.416;24.598;2024-02-14T15:45:04;100410.44;;;11.43;100.00
8286;BME280;4181;43.416;24.598;2024-02-14T15:47:38;100412.94;;;11.45;100.00
8286;BME280;4181;43.416;24.598;2024-02-14T15:50:42;100408.28;;;11.45;100.00
8286;BME280;4181;43.416;24.598;2024-02-14T15:53:31;100411.22;;;11.22;100.00
8286;BME280;4181;43.416;24.598;2024-02-14T15:56:12;100422.31;;;11.16;100.00
8286;BME280;4181;43.416;24.598;2024-02-14T15:59:06;100417.59;;;11.11;100.00